createdAt,value
2018-09-20T00:01:40.020Z,65.64
2018-09-20T00:04:18.473Z,65.84
2018-09-20T00:06:55.529Z,65.56
2018-09-20T00:09:32.276Z,65.59
2018-09-20T00:12:10.461Z,64.87
2018-09-20T00:14:46.418Z,65.51
2018-09-20T00:17:25.681Z,65.40
2018-09-20T00:20:01.907Z,65.55
2018-09-20T00:22:39.209Z,65.84
2018-09-20T00:25:15.858Z,65.66
2018-09-20T00:27:53.542Z,65.44
2018-09-20T00:30:32.970Z,65.90
2018-09-20T00:33:10.424Z,65.24
2018-09-20T00:35:47.616Z,66.28
2018-09-20T00:38:16.900Z,66.02
2018-09-20T00:40:46.172Z,66.13
2018-09-20T00:43:15.852Z,65.64
2018-09-20T00:45:45.154Z,65.55
2018-09-20T00:48:14.480Z,66.25
2018-09-20T00:50:43.806Z,65.71
2018-09-20T00:53:17.761Z,65.81
2018-09-20T00:55:47.060Z,67.03
2018-09-20T00:58:16.359Z,66.23
2018-09-20T01:00:45.648Z,66.13
2018-09-20T01:03:15.005Z,66.30
2018-09-20T01:05:44.345Z,66.36
2018-09-20T01:08:13.661Z,66.66
2018-09-20T01:10:42.987Z,66.86
2018-09-20T01:13:12.305Z,67.07
2018-09-20T01:15:41.609Z,67.07
2018-09-20T01:18:10.909Z,67.04
2018-09-20T01:20:40.203Z,67.68
2018-09-20T01:23:09.509Z,66.76
2018-09-20T01:25:38.834Z,67.92
2018-09-20T01:28:08.134Z,67.92
2018-09-20T01:30:37.441Z,67.58
2018-09-20T01:33:06.838Z,68.19
2018-09-20T01:35:36.188Z,68.27
2018-09-20T01:38:06.316Z,68.23
2018-09-20T01:40:35.638Z,68.42
2018-09-20T01:43:06.185Z,68.40
2018-09-20T01:45:35.590Z,68.42
2018-09-20T01:48:04.915Z,67.47
2018-09-20T01:50:34.246Z,68.54
2018-09-20T01:53:03.633Z,68.12
2018-09-20T01:55:33.148Z,69.39
2018-09-20T01:58:02.702Z,68.91
2018-09-20T02:00:32.367Z,68.27
2018-09-20T02:03:01.984Z,68.88
2018-09-20T02:05:31.509Z,68.75
2018-09-20T02:08:01.055Z,68.69
2018-09-20T02:10:30.654Z,68.74
2018-09-20T02:13:00.274Z,68.72
2018-09-20T02:15:29.768Z,69.76
2018-09-20T02:17:59.398Z,69.57
2018-09-20T02:20:28.989Z,69.16
2018-09-20T02:22:58.568Z,69.85
2018-09-20T02:25:28.159Z,69.64
2018-09-20T02:27:57.557Z,69.28
2018-09-20T02:30:27.091Z,70.20
2018-09-20T02:32:56.622Z,69.33
2018-09-20T02:35:26.181Z,69.30
2018-09-20T02:37:55.773Z,70.07
2018-09-20T02:40:25.295Z,70.37
2018-09-20T02:42:54.722Z,69.60
2018-09-20T02:45:24.321Z,70.59
2018-09-20T02:47:53.793Z,70.26
2018-09-20T02:50:23.373Z,70.41
2018-09-20T02:52:52.680Z,70.17
2018-09-20T02:55:22.005Z,69.92
2018-09-20T02:57:51.338Z,70.81
2018-09-20T03:00:20.667Z,70.67
2018-09-20T03:02:49.983Z,70.08
2018-09-20T03:05:19.299Z,70.59
2018-09-20T03:07:48.622Z,70.25
2018-09-20T03:10:17.938Z,71.12
2018-09-20T03:12:47.257Z,71.66
2018-09-20T03:15:16.590Z,71.54
2018-09-20T03:17:45.902Z,71.00
2018-09-20T03:20:15.750Z,71.03
2018-09-20T03:22:45.090Z,71.37
2018-09-20T03:25:14.440Z,71.30
2018-09-20T03:27:43.771Z,70.78
2018-09-20T03:30:13.195Z,71.52
2018-09-20T03:32:42.446Z,71.47
2018-09-20T03:35:11.789Z,70.99
2018-09-20T03:37:41.078Z,71.42
2018-09-20T03:40:10.413Z,71.72
2018-09-20T03:42:39.756Z,71.03
2018-09-20T03:45:09.061Z,71.44
2018-09-20T03:47:38.406Z,71.34
2018-09-20T03:50:08.084Z,71.48
2018-09-20T03:52:37.433Z,71.45
2018-09-20T03:55:07.374Z,72.04
2018-09-20T03:57:36.858Z,71.30
2018-09-20T04:00:06.469Z,71.37
2018-09-20T04:02:36.084Z,72.18
2018-09-20T04:05:06.599Z,72.27
2018-09-20T04:07:36.199Z,72.07
2018-09-20T04:10:05.716Z,72.15
2018-09-20T04:12:35.407Z,72.01
2018-09-20T04:15:06.173Z,72.65
2018-09-20T04:17:35.588Z,72.83
2018-09-20T04:20:07.591Z,72.93
2018-09-20T04:22:37.258Z,72.45
2018-09-20T04:25:07.066Z,72.45
2018-09-20T04:27:36.629Z,73.14
2018-09-20T04:30:06.574Z,73.02
2018-09-20T04:32:36.158Z,72.74
2018-09-20T04:35:06.415Z,72.63
2018-09-20T04:37:36.004Z,73.49
2018-09-20T04:40:06.527Z,73.65
2018-09-20T04:42:36.021Z,73.48
2018-09-20T04:45:07.379Z,73.25
2018-09-20T04:47:37.737Z,73.74
2018-09-20T04:50:07.730Z,73.58
2018-09-20T04:52:37.385Z,73.09
2018-09-20T04:55:07.956Z,73.65
2018-09-20T04:57:37.741Z,73.56
2018-09-20T05:00:07.319Z,73.23
2018-09-20T05:02:36.694Z,73.21
2018-09-20T05:05:06.566Z,74.10
2018-09-20T05:07:36.028Z,73.60
2018-09-20T05:10:06.298Z,73.89
2018-09-20T05:12:35.941Z,74.26
2018-09-20T05:15:06.439Z,74.49
2018-09-20T05:17:35.978Z,73.85
2018-09-20T05:20:06.499Z,74.30
2018-09-20T05:22:35.846Z,73.97
2018-09-20T05:25:06.574Z,74.23
2018-09-20T05:27:52.553Z,73.46
2018-09-20T05:30:22.029Z,74.10
2018-09-20T05:32:51.733Z,73.71
2018-09-20T05:35:21.159Z,73.36
2018-09-20T05:37:50.813Z,72.72
2018-09-20T05:40:20.294Z,73.50
2018-09-20T05:42:49.761Z,73.47
2018-09-20T05:45:19.268Z,73.42
2018-09-20T05:47:48.742Z,73.04
2018-09-20T05:50:18.099Z,73.28
2018-09-20T05:52:47.510Z,72.37
2018-09-20T05:55:16.975Z,72.50
2018-09-20T05:57:46.431Z,72.80
2018-09-20T06:00:16.376Z,72.52
2018-09-20T06:02:45.779Z,72.15
2018-09-20T06:05:15.198Z,72.52
2018-09-20T06:07:44.621Z,72.21
2018-09-20T06:10:14.074Z,72.04
2018-09-20T06:12:43.533Z,72.10
2018-09-20T06:15:12.965Z,71.70
2018-09-20T06:17:42.354Z,71.34
2018-09-20T06:20:13.079Z,71.23
2018-09-20T06:22:43.189Z,71.43
2018-09-20T06:25:12.733Z,70.78
2018-09-20T06:27:42.334Z,70.86
2018-09-20T06:30:11.813Z,71.50
2018-09-20T06:32:41.236Z,70.53
2018-09-20T06:35:10.745Z,70.27
2018-09-20T06:37:40.202Z,70.92
2018-09-20T06:40:09.682Z,70.29
2018-09-20T06:42:39.125Z,70.25
2018-09-20T06:45:09.297Z,70.02
2018-09-20T06:47:38.723Z,69.45
2018-09-20T06:50:08.323Z,69.92
2018-09-20T06:52:37.868Z,69.12
2018-09-20T06:55:07.314Z,69.64
2018-09-20T06:57:37.469Z,69.35
2018-09-20T07:00:07.995Z,68.34
2018-09-20T07:02:37.441Z,68.90
2018-09-20T07:05:06.828Z,67.95
2018-09-20T07:07:36.245Z,68.76
2018-09-20T07:10:06.573Z,68.11
2018-09-20T07:12:35.997Z,67.42
2018-09-20T07:15:06.679Z,67.30
2018-09-20T07:17:36.143Z,67.98
2018-09-20T07:20:06.825Z,67.27
2018-09-20T07:22:36.242Z,66.87
2018-09-20T07:25:05.774Z,66.83
2018-09-20T07:27:35.224Z,66.04
2018-09-20T07:30:04.653Z,65.86
2018-09-20T07:32:34.166Z,65.71
2018-09-20T07:35:03.572Z,65.72
2018-09-20T07:37:33.114Z,65.17
2018-09-20T07:40:02.550Z,65.61
2018-09-20T07:42:32.894Z,65.42
2018-09-20T07:45:02.348Z,65.19
2018-09-20T07:47:31.954Z,65.15
2018-09-20T07:50:01.392Z,64.67
2018-09-20T07:52:31.697Z,63.70
2018-09-20T07:55:01.103Z,63.39
2018-09-20T07:57:31.174Z,63.10
2018-09-20T08:00:02.125Z,62.87
2018-09-20T08:02:31.678Z,62.59
2018-09-20T08:05:01.069Z,63.02
2018-09-20T08:07:30.739Z,63.13
2018-09-20T08:10:00.185Z,62.84
2018-09-20T08:12:29.809Z,63.06
2018-09-20T08:14:59.849Z,62.13
2018-09-20T08:17:29.279Z,62.45
2018-09-20T08:19:58.758Z,61.59
2018-09-20T08:22:29.147Z,61.66
2018-09-20T08:24:58.603Z,61.67
2018-09-20T08:27:28.081Z,61.62
2018-09-20T08:29:57.500Z,61.18
2018-09-20T08:32:27.003Z,61.14
2018-09-20T08:34:56.527Z,61.23
2018-09-20T08:37:25.966Z,61.33
2018-09-20T08:39:55.351Z,62.27
2018-09-20T08:42:24.886Z,61.67
2018-09-20T08:44:54.334Z,61.51
2018-09-20T08:47:23.816Z,61.33
2018-09-20T08:49:53.276Z,62.07
2018-09-20T08:52:22.685Z,61.19
2018-09-20T08:54:53.499Z,60.78
2018-09-20T08:57:23.915Z,60.69
2018-09-20T08:59:53.332Z,60.88
2018-09-20T09:02:23.548Z,59.67
2018-09-20T09:04:52.917Z,60.09
2018-09-20T09:07:22.390Z,59.53
2018-09-20T09:09:51.749Z,60.17
2018-09-20T09:12:21.157Z,59.87
2018-09-20T09:14:50.503Z,59.88
2018-09-20T09:17:19.959Z,59.70
2018-09-20T09:19:49.338Z,58.99
2018-09-20T09:22:18.674Z,58.88
2018-09-20T09:24:48.086Z,58.67
2018-09-20T09:27:17.452Z,58.18
2018-09-20T09:29:46.825Z,59.04
2018-09-20T09:32:16.213Z,58.37
2018-09-20T09:34:45.570Z,58.38
2018-09-20T09:37:14.987Z,58.04
2018-09-20T09:39:44.359Z,58.64
2018-09-20T09:42:13.821Z,57.82
2018-09-20T09:44:43.290Z,58.16
2018-09-20T09:47:12.681Z,57.42
2018-09-20T09:49:42.059Z,57.28
2018-09-20T09:52:11.470Z,56.60
2018-09-20T09:54:40.858Z,56.96
2018-09-20T09:57:10.259Z,57.46
2018-09-20T09:59:39.690Z,56.76
2018-09-20T10:02:09.665Z,56.58
2018-09-20T10:04:39.055Z,55.85
2018-09-20T10:07:08.447Z,55.49
2018-09-20T10:09:37.897Z,55.20
2018-09-20T10:12:07.209Z,55.04
2018-09-20T10:14:36.598Z,55.57
2018-09-20T10:17:06.245Z,54.81
2018-09-20T10:19:35.664Z,54.43
2018-09-20T10:22:06.310Z,54.99
2018-09-20T10:24:35.715Z,54.32
2018-09-20T10:27:06.319Z,52.76
2018-09-20T10:29:35.653Z,53.25
2018-09-20T10:32:06.298Z,52.94
2018-09-20T10:34:36.235Z,52.94
2018-09-20T10:37:06.133Z,53.43
2018-09-20T10:39:35.510Z,53.03
2018-09-20T10:42:06.192Z,53.50
2018-09-20T10:44:35.580Z,52.39
2018-09-20T10:47:07.200Z,52.94
2018-09-20T10:49:36.573Z,52.94
2018-09-20T10:52:06.464Z,52.26
2018-09-20T10:54:37.634Z,52.35
2018-09-20T10:57:06.986Z,52.35
2018-09-20T10:59:36.378Z,52.42
2018-09-20T11:02:06.121Z,52.52
2018-09-20T11:04:35.508Z,51.90
2018-09-20T11:07:06.216Z,50.92
2018-09-20T11:09:35.608Z,51.27
2018-09-20T11:12:06.627Z,52.29
2018-09-20T11:14:36.070Z,52.61
2018-09-20T11:17:06.514Z,51.72
2018-09-20T11:19:36.009Z,51.82
2018-09-20T11:22:06.087Z,51.18
2018-09-20T11:24:35.565Z,50.79
2018-09-20T11:27:06.227Z,51.34
2018-09-20T11:29:35.638Z,50.49
2018-09-20T11:32:06.256Z,50.45
2018-09-20T11:34:35.618Z,51.36
2018-09-20T11:37:05.063Z,51.12
2018-09-20T11:39:34.474Z,49.75
2018-09-20T11:42:03.793Z,49.71
2018-09-20T11:44:33.155Z,49.89
2018-09-20T11:47:02.569Z,49.23
2018-09-20T11:49:32.152Z,48.42
2018-09-20T11:52:01.514Z,47.23
2018-09-20T11:54:30.950Z,47.08
2018-09-20T11:57:00.339Z,46.52
2018-09-20T11:59:29.713Z,45.48
2018-09-20T12:02:05.817Z,43.91
2018-09-20T12:04:35.243Z,43.59
2018-09-20T12:07:04.653Z,43.24
2018-09-20T12:09:34.394Z,43.60
2018-09-20T12:12:03.822Z,41.06
2018-09-20T12:14:33.599Z,41.13
2018-09-20T12:17:02.976Z,40.08
2018-09-20T12:19:32.414Z,39.55
2018-09-20T12:22:01.800Z,39.05
2018-09-20T12:24:31.170Z,39.67
2018-09-20T12:27:00.527Z,38.05
2018-09-20T12:29:29.887Z,39.01
2018-09-20T12:31:59.340Z,37.76
2018-09-20T12:34:28.649Z,38.76
2018-09-20T12:36:57.960Z,38.90
2018-09-20T12:39:27.279Z,37.43
2018-09-20T12:41:56.640Z,37.10
2018-09-20T12:44:25.996Z,37.17
2018-09-20T12:46:55.338Z,34.94
2018-09-20T12:49:24.709Z,35.58
2018-09-20T12:51:55.516Z,34.99
2018-09-20T12:54:24.853Z,37.02
2018-09-20T12:56:54.258Z,38.00
2018-09-20T12:59:23.664Z,38.72
2018-09-20T13:01:53.478Z,38.46
2018-09-20T13:04:22.982Z,37.31
2018-09-20T13:06:52.473Z,38.16
2018-09-20T13:09:21.819Z,38.84
2018-09-20T13:11:51.206Z,38.88
2018-09-20T13:14:20.645Z,39.67
2018-09-20T13:16:50.061Z,40.47
2018-09-20T13:19:19.432Z,40.66
2018-09-20T13:21:48.771Z,40.61
2018-09-20T13:24:18.106Z,40.69
2018-09-20T13:26:47.434Z,41.78
2018-09-20T13:29:16.797Z,41.86
2018-09-20T13:31:46.224Z,41.94
2018-09-20T13:34:15.558Z,43.13
2018-09-20T13:36:44.892Z,42.86
2018-09-20T13:39:14.281Z,44.31
2018-09-20T13:41:43.680Z,43.11
2018-09-20T13:44:13.096Z,43.29
2018-09-20T13:46:42.673Z,43.90
2018-09-20T13:49:12.314Z,44.38
2018-09-20T13:51:41.628Z,44.44
2018-09-20T13:54:10.949Z,45.93
2018-09-20T13:56:40.343Z,46.08
2018-09-20T13:59:09.936Z,46.19
2018-09-20T14:01:39.453Z,45.73
2018-09-20T14:04:09.071Z,45.81
2018-09-20T14:06:39.430Z,45.16
2018-09-20T14:09:13.551Z,45.59
2018-09-20T14:11:43.056Z,45.69
2018-09-20T14:14:12.432Z,45.45
2018-09-20T14:16:41.833Z,45.67
2018-09-20T14:19:11.219Z,45.36
2018-09-20T14:21:40.540Z,45.77
2018-09-20T14:24:09.875Z,46.11
2018-09-20T14:26:39.217Z,45.36
2018-09-20T14:29:08.570Z,45.57
2018-09-20T14:31:37.925Z,46.01
2018-09-20T14:34:07.903Z,45.67
2018-09-20T14:36:37.208Z,46.32
2018-09-20T14:39:09.664Z,45.67
2018-09-20T14:41:39.244Z,46.51
2018-09-20T14:44:08.585Z,45.93
2018-09-20T14:46:37.883Z,46.66
2018-09-20T14:49:07.709Z,46.56
2018-09-20T14:51:37.031Z,47.29
2018-09-20T14:54:06.464Z,47.39
2018-09-20T14:56:35.806Z,46.82
2018-09-20T14:59:06.234Z,46.44
2018-09-20T15:01:35.567Z,45.25
2018-09-20T15:04:06.161Z,44.66
2018-09-20T15:06:35.498Z,44.19
2018-09-20T15:09:08.695Z,44.18
2018-09-20T15:11:38.018Z,44.40
2018-09-20T15:14:07.338Z,45.22
2018-09-20T15:16:36.683Z,44.55
2018-09-20T15:19:06.886Z,44.72
2018-09-20T15:21:44.337Z,43.14
2018-09-20T15:24:13.892Z,43.59
2018-09-20T15:26:43.537Z,43.51
2018-09-20T15:29:14.438Z,43.56
2018-09-20T15:31:43.869Z,43.55
2018-09-20T15:34:13.985Z,43.00
2018-09-20T15:36:43.391Z,43.37
2018-09-20T15:39:14.405Z,43.40
2018-09-20T15:41:43.756Z,43.50
2018-09-20T15:44:13.078Z,44.08
2018-09-20T15:46:46.395Z,43.50
2018-09-20T15:49:16.758Z,44.39
2018-09-20T15:51:47.142Z,44.68
2018-09-20T15:54:19.993Z,44.44
2018-09-20T15:56:49.875Z,43.66
2018-09-20T15:59:19.863Z,44.62
2018-09-20T16:01:49.677Z,44.28
2018-09-20T16:04:19.687Z,44.41
2018-09-20T16:06:51.481Z,45.57
2018-09-20T16:09:21.184Z,45.18
2018-09-20T16:14:48.092Z,46.83
2018-09-20T16:17:17.614Z,47.42
2018-09-20T16:19:47.054Z,47.23
2018-09-20T16:22:16.325Z,47.92
2018-09-20T16:24:45.597Z,47.64
2018-09-20T16:27:14.889Z,48.18
2018-09-20T16:30:10.544Z,49.23
2018-09-20T16:33:02.169Z,48.98
2018-09-20T16:36:04.933Z,48.70
2018-09-20T16:38:50.866Z,49.13
2018-09-20T16:41:31.177Z,50.05
2018-09-20T16:44:00.439Z,49.45
2018-09-20T16:46:29.730Z,50.07
2018-09-20T16:48:58.993Z,49.11
2018-09-20T16:51:28.339Z,48.96
2018-09-20T16:53:57.611Z,48.27
2018-09-20T16:56:26.926Z,47.62
2018-09-20T16:58:56.345Z,46.84
2018-09-20T17:01:25.663Z,47.71
2018-09-20T17:03:55.089Z,48.19
2018-09-20T17:06:24.357Z,47.63
2018-09-20T17:08:53.644Z,48.55
2018-09-20T17:11:22.953Z,49.01
2018-09-20T17:13:52.211Z,49.45
2018-09-20T17:16:21.512Z,50.17
2018-09-20T17:18:50.780Z,50.80
2018-09-20T17:21:20.075Z,50.50
2018-09-20T17:23:49.334Z,50.77
2018-09-20T17:26:18.614Z,52.09
2018-09-20T17:28:47.888Z,52.47
2018-09-20T17:31:17.209Z,52.06
2018-09-20T17:33:46.540Z,52.62
2018-09-20T17:36:16.170Z,52.88
2018-09-20T17:38:46.443Z,53.45
2018-09-20T17:41:21.781Z,54.11
2018-09-20T17:43:59.839Z,54.37
2018-09-20T17:46:29.115Z,54.66
2018-09-20T17:48:58.439Z,54.88
2018-09-20T17:51:28.198Z,55.75
2018-09-20T17:53:58.267Z,55.30
2018-09-20T17:56:28.342Z,56.46
2018-09-20T17:58:58.374Z,55.71
2018-09-20T18:01:28.023Z,56.14
2018-09-20T18:03:57.321Z,56.72
2018-09-20T18:06:26.632Z,56.73
2018-09-20T18:08:55.922Z,56.20
2018-09-20T18:11:25.197Z,56.59
2018-09-20T18:13:54.496Z,57.30
2018-09-20T18:16:31.249Z,56.66
2018-09-20T18:19:00.523Z,56.94
2018-09-20T18:21:29.811Z,58.04
2018-09-20T18:23:59.119Z,58.18
2018-09-20T18:26:28.397Z,57.73
2018-09-20T18:28:57.801Z,58.70
2018-09-20T18:31:27.065Z,58.29
2018-09-20T18:33:56.406Z,59.13
2018-09-20T18:36:25.683Z,59.23
2018-09-20T18:38:55.005Z,59.44
2018-09-20T18:41:24.322Z,59.04
2018-09-20T18:43:53.661Z,58.74
2018-09-20T18:46:22.966Z,58.80
2018-09-20T18:48:52.274Z,59.42
2018-09-20T18:51:22.348Z,60.13
2018-09-20T18:53:51.665Z,59.51
2018-09-20T18:56:21.029Z,60.07
2018-09-20T18:58:50.361Z,60.26
2018-09-20T19:01:19.697Z,60.38
2018-09-20T19:03:49.035Z,60.63
2018-09-20T19:06:18.388Z,60.15
2018-09-20T19:08:47.698Z,60.54
2018-09-20T19:11:17.080Z,60.13
2018-09-20T19:13:46.434Z,60.88
2018-09-20T19:16:15.746Z,60.94
2018-09-20T19:18:45.217Z,59.56
2018-09-20T19:21:14.591Z,61.01
2018-09-20T19:23:43.958Z,61.17
2018-09-20T19:26:13.859Z,60.89
2018-09-20T19:28:43.512Z,60.45
2018-09-20T19:31:13.377Z,61.06
2018-09-20T19:33:46.346Z,60.84
2018-09-20T19:36:20.583Z,60.75
2018-09-20T19:38:51.523Z,60.96
2018-09-20T19:41:21.342Z,60.68
2018-09-20T19:43:50.916Z,61.48
2018-09-20T19:46:21.353Z,61.53
2018-09-20T19:48:50.863Z,61.63
2018-09-20T19:51:21.904Z,61.72
2018-09-20T19:53:51.425Z,61.01
2018-09-20T19:56:20.807Z,61.01
2018-09-20T19:58:51.736Z,60.94
2018-09-20T20:01:21.264Z,60.86
2018-09-20T20:06:32.861Z,60.88
2018-09-20T20:09:02.353Z,60.54
2018-09-20T20:11:32.174Z,60.78
2018-09-20T20:14:01.621Z,61.16
2018-09-20T20:16:31.287Z,60.96
2018-09-20T20:19:00.785Z,61.00
2018-09-20T20:21:30.297Z,62.04
2018-09-20T20:23:59.804Z,61.55
2018-09-20T20:26:29.309Z,61.02
2018-09-20T20:28:58.809Z,61.15
2018-09-20T20:31:28.417Z,61.21
2018-09-20T20:33:57.921Z,61.93
2018-09-20T20:36:27.914Z,61.31
2018-09-20T20:38:57.631Z,61.38
2018-09-20T20:41:27.169Z,62.00
2018-09-20T20:43:57.164Z,62.03
2018-09-20T20:46:26.774Z,62.28
2018-09-20T20:48:56.284Z,61.60
2018-09-20T20:51:25.897Z,62.13
2018-09-20T20:53:55.578Z,62.16
2018-09-20T20:56:26.122Z,61.65
2018-09-20T20:58:55.666Z,61.46
2018-09-20T21:01:25.436Z,62.08
2018-09-20T21:03:54.946Z,61.52
2018-09-20T21:06:24.540Z,62.42
2018-09-20T21:08:54.104Z,61.79
2018-09-20T21:11:23.570Z,62.15
2018-09-20T21:13:53.262Z,62.20
2018-09-20T21:16:22.786Z,62.51
2018-09-20T21:18:55.650Z,62.54
2018-09-20T21:21:25.365Z,62.30
2018-09-20T21:23:54.790Z,62.88
2018-09-20T21:26:24.301Z,62.98
2018-09-20T21:31:21.161Z,62.42
2018-09-20T21:33:50.479Z,62.78
2018-09-20T21:36:19.773Z,62.40
2018-09-20T21:38:49.113Z,62.33
2018-09-20T21:41:18.504Z,62.79
2018-09-20T21:43:47.866Z,62.36
2018-09-20T21:46:17.213Z,63.30
2018-09-20T21:48:46.568Z,62.91
2018-09-20T21:51:15.924Z,63.42
2018-09-20T21:53:45.193Z,62.85
2018-09-20T21:56:14.515Z,63.27
2018-09-20T21:58:43.900Z,63.83
2018-09-20T22:01:13.736Z,63.34
2018-09-20T22:03:43.072Z,64.03
2018-09-20T22:06:12.382Z,64.24
2018-09-20T22:08:41.689Z,63.77
2018-09-20T22:11:10.986Z,63.68
2018-09-20T22:13:40.289Z,63.69
2018-09-20T22:16:09.631Z,64.56
2018-09-20T22:18:38.989Z,64.81
2018-09-20T22:21:08.312Z,64.79
2018-09-20T22:23:37.649Z,63.75
2018-09-20T22:26:07.040Z,64.06
2018-09-20T22:28:36.344Z,63.87
2018-09-20T22:31:06.654Z,64.02
2018-09-20T22:33:35.964Z,64.52
2018-09-20T22:36:05.944Z,64.36
2018-09-20T22:38:35.234Z,63.59
2018-09-20T22:46:06.917Z,63.44
2018-09-20T22:48:36.216Z,63.84
2018-09-20T22:51:08.937Z,64.25
2018-09-20T22:53:38.289Z,63.83
2018-09-20T22:56:07.665Z,63.66
2018-09-20T22:58:37.033Z,64.54
2018-09-20T23:01:06.372Z,63.55
2018-09-20T23:03:35.710Z,63.62
2018-09-20T23:06:13.003Z,64.18
2018-09-20T23:08:49.715Z,64.44
2018-09-20T23:11:28.143Z,63.84
2018-09-20T23:14:05.905Z,64.62
2018-09-20T23:16:43.353Z,64.27
2018-09-20T23:19:20.837Z,63.68
2018-09-20T23:21:58.102Z,63.94
2018-09-20T23:24:36.217Z,64.65
2018-09-20T23:27:14.020Z,64.02
2018-09-20T23:29:53.257Z,63.88
2018-09-20T23:32:30.402Z,64.02
2018-09-20T23:35:09.453Z,64.24
2018-09-20T23:37:47.381Z,63.87
2018-09-20T23:40:25.132Z,64.27
2018-09-20T23:43:01.995Z,64.04
2018-09-20T23:45:39.589Z,64.10
2018-09-20T23:48:18.725Z,64.27
2018-09-20T23:50:57.640Z,64.45
2018-09-20T23:53:35.150Z,64.43
2018-09-20T23:56:12.637Z,64.36
2018-09-20T23:58:48.906Z,64.31
